Time;durP1;ratioP1;P1;durP2;ratioP2;P2;SDS_P1;SDS_P2;PMS_P1;PMS_P2;Temp;Humidity;BMP_temperature;BMP_pressure;BME280_temperature;BME280_humidity;BME280_pressure;Samples;Min_cycle;Max_cycle;Signal;HPM_P1;HPM_P2
2024/03/22 00:04:28;;;;;;;74.90;69.00;;;;;;;9.76;100.00;100863.59;213916;1289;139193;-86
2024/03/22 00:09:29;;;;;;;57.80;53.00;;;;;;;9.70;100.00;100862.59;213246;1287;140414;-86
2024/03/22 00:14:29;;;;;;;67.60;62.20;;;;;;;9.64;100.00;100857.20;213762;1289;140473;-85
2024/03/22 00:19:30;;;;;;;45.60;41.40;;;;;;;9.58;100.00;100856.05;213233;1286;140524;-86
2024/03/22 00:24:30;;;;;;;45.00;41.00;;;;;;;9.50;100.00;100845.36;213716;1290;140172;-85
2024/03/22 00:29:31;;;;;;;38.80;35.10;;;;;;;9.43;100.00;100840.97;213690;1288;140020;-85
2024/03/22 00:34:31;;;;;;;35.40;31.80;;;;;;;9.37;100.00;100830.61;213850;1290;139985;-85
2024/03/22 00:39:32;;;;;;;40.40;35.30;;;;;;;9.33;100.00;100824.33;213387;1290;140644;-86
2024/03/22 00:44:33;;;;;;;36.00;31.80;;;;;;;9.28;100.00;100825.95;213879;1285;139295;-84
2024/03/22 00:49:33;;;;;;;38.10;33.60;;;;;;;9.23;100.00;100827.40;213317;1285;140262;-85
2024/03/22 00:54:34;;;;;;;40.20;33.50;;;;;;;9.20;100.00;100834.31;214218;1285;139365;-85
2024/03/22 00:59:34;;;;;;;34.30;26.60;;;;;;;9.17;100.00;100834.25;213789;1286;141321;-85
2024/03/22 01:04:35;;;;;;;33.30;27.70;;;;;;;9.14;100.00;100828.28;214091;1285;139552;-85
2024/03/22 01:09:35;;;;;;;36.10;29.60;;;;;;;9.07;100.00;100826.17;213840;1288;140419;-85
2024/03/22 01:14:36;;;;;;;33.60;27.40;;;;;;;9.03;100.00;100823.94;213811;1289;139532;-85
2024/03/22 01:19:36;;;;;;;30.80;23.60;;;;;;;8.99;100.00;100827.86;214297;1288;140113;-85
2024/03/22 01:24:37;;;;;;;32.20;24.70;;;;;;;8.97;100.00;100833.60;214595;1286;139638;-85
2024/03/22 01:29:37;;;;;;;30.80;21.20;;;;;;;8.94;100.00;100832.52;214427;1289;142569;-85
2024/03/22 01:34:38;;;;;;;30.30;22.00;;;;;;;8.90;100.00;100833.36;213773;1290;139696;-85
2024/03/22 01:39:38;;;;;;;28.30;21.80;;;;;;;8.87;100.00;100831.48;213082;1291;140003;-86
2024/03/22 01:44:39;;;;;;;29.70;20.40;;;;;;;8.85;100.00;100831.21;213796;1286;139597;-86
2024/03/22 01:49:39;;;;;;;27.10;19.10;;;;;;;8.81;100.00;100832.45;213219;1287;141155;-86
2024/03/22 01:54:39;;;;;;;27.80;19.90;;;;;;;8.79;100.00;100836.55;213844;1288;139549;-86
2024/03/22 01:59:41;;;;;;;26.50;19.40;;;;;;;8.77;100.00;100835.23;213194;1290;141201;-86
2024/03/22 02:04:41;;;;;;;29.60;19.20;;;;;;;8.71;100.00;100828.60;213776;1288;139545;-86
2024/03/22 02:09:42;;;;;;;26.40;17.00;;;;;;;8.68;100.00;100819.89;213231;1286;142578;-86
2024/03/22 02:14:42;;;;;;;26.30;16.30;;;;;;;8.66;100.00;100815.37;213821;1285;139953;-86
2024/03/22 02:19:43;;;;;;;25.90;15.20;;;;;;;8.63;100.00;100813.16;213300;1285;140179;-85
2024/03/22 02:24:43;;;;;;;26.80;16.00;;;;;;;8.60;100.00;100818.83;213812;1285;139678;-86
2024/03/22 02:29:43;;;;;;;23.50;16.40;;;;;;;8.59;100.00;100806.63;213333;1289;139989;-86
2024/03/22 02:34:44;;;;;;;23.80;14.70;;;;;;;8.54;100.00;100805.02;213992;1285;139540;-86
2024/03/22 02:39:44;;;;;;;24.30;15.30;;;;;;;8.49;100.00;100809.67;213227;1285;140016;-86
2024/03/22 02:44:45;;;;;;;22.90;14.30;;;;;;;8.41;100.00;100805.73;213507;1285;139974;-86
2024/03/22 02:49:45;;;;;;;24.00;14.40;;;;;;;8.36;100.00;100798.84;212948;1291;140530;-86
2024/03/22 02:54:45;;;;;;;25.60;15.40;;;;;;;8.32;100.00;100795.36;213759;1285;139595;-86
2024/03/22 02:59:46;;;;;;;27.20;15.30;;;;;;;8.24;100.00;100796.73;213495;1285;140450;-84
2024/03/22 03:04:47;;;;;;;25.50;14.50;;;;;;;8.18;100.00;100792.64;214119;1285;139919;-85
2024/03/22 03:09:47;;;;;;;24.50;15.20;;;;;;;8.15;100.00;100795.52;213242;1285;140674;-84
2024/03/22 03:14:47;;;;;;;29.70;16.00;;;;;;;8.12;100.00;100799.69;213750;1285;140025;-85
2024/03/22 03:19:48;;;;;;;28.70;15.80;;;;;;;8.08;100.00;100804.44;213026;1285;140817;-85
2024/03/22 03:24:49;;;;;;;28.30;15.70;;;;;;;8.06;100.00;100801.23;213773;1288;140522;-84
2024/03/22 03:29:49;;;;;;;30.10;17.50;;;;;;;8.03;100.00;100800.29;213318;1288;140266;-85
2024/03/22 03:34:49;;;;;;;29.10;15.40;;;;;;;8.01;100.00;100800.45;214318;1288;139624;-86
2024/03/22 03:39:50;;;;;;;27.60;14.80;;;;;;;7.98;100.00;100798.57;213414;1291;139734;-85
2024/03/22 03:44:51;;;;;;;29.60;16.10;;;;;;;7.96;100.00;100799.86;213891;1285;139942;-86
2024/03/22 03:49:52;;;;;;;27.50;14.50;;;;;;;7.95;100.00;100798.48;213338;1285;141140;-86
2024/03/22 03:54:52;;;;;;;29.60;15.20;;;;;;;7.90;100.00;100798.45;213856;1287;140074;-86
2024/03/22 03:59:53;;;;;;;29.70;15.10;;;;;;;7.89;100.00;100804.70;213419;1288;139028;-86
2024/03/22 04:04:53;;;;;;;26.90;13.30;;;;;;;7.85;100.00;100805.52;213795;1285;139638;-86
2024/03/22 04:09:54;;;;;;;27.40;14.20;;;;;;;7.81;100.00;100806.26;213225;1286;139848;-86
2024/03/22 04:14:54;;;;;;;25.50;13.10;;;;;;;7.80;100.00;100801.67;213891;1285;139877;-86
2024/03/22 04:19:55;;;;;;;25.80;12.50;;;;;;;7.77;100.00;100803.08;213292;1285;140464;-85
2024/03/22 04:24:55;;;;;;;26.70;13.90;;;;;;;7.75;100.00;100805.14;213904;1289;140583;-85
2024/03/22 04:29:56;;;;;;;27.50;13.20;;;;;;;7.73;100.00;100792.80;213342;1289;140657;-86
2024/03/22 04:34:56;;;;;;;24.00;12.90;;;;;;;7.71;100.00;100784.39;214275;1285;139847;-85
2024/03/22 04:39:57;;;;;;;25.70;12.80;;;;;;;7.69;100.00;100783.52;213427;1285;140103;-85
2024/03/22 04:44:57;;;;;;;27.60;11.40;;;;;;;7.67;100.00;100779.25;213896;1288;139865;-86
2024/03/22 04:49:58;;;;;;;25.70;10.80;;;;;;;7.64;100.00;100780.02;213381;1285;139837;-86
2024/03/22 04:54:58;;;;;;;26.00;12.10;;;;;;;7.62;100.00;100773.77;214321;1285;139965;-86
2024/03/22 04:59:59;;;;;;;27.00;13.20;;;;;;;7.62;100.00;100769.79;214121;1288;139868;-84
2024/03/22 05:05:00;;;;;;;26.40;13.40;;;;;;;7.61;100.00;100774.38;214426;1286;138890;-86
2024/03/22 05:10:00;;;;;;;29.10;12.90;;;;;;;7.61;100.00;100769.59;213900;1288;139797;-85
2024/03/22 05:15:02;;;;;;;33.10;15.10;;;;;;;7.61;100.00;100763.52;214531;1285;139008;-85
2024/03/22 05:20:03;;;;;;;35.50;17.30;;;;;;;7.60;100.00;100767.86;214118;1285;140178;-86
2024/03/22 05:25:03;;;;;;;35.60;16.20;;;;;;;7.58;100.00;100760.21;214516;1285;140486;-86
2024/03/22 05:30:04;;;;;;;36.80;16.40;;;;;;;7.57;100.00;100758.06;213383;1285;139328;-85
2024/03/22 05:35:05;;;;;;;41.50;18.50;;;;;;;7.55;100.00;100755.83;213779;1285;138886;-86
2024/03/22 05:40:06;;;;;;;45.80;18.90;;;;;;;7.53;100.00;100750.59;214012;1285;139376;-85
2024/03/22 05:45:07;;;;;;;52.50;21.70;;;;;;;7.51;100.00;100753.60;213851;1285;139098;-85
2024/03/22 05:50:09;;;;;;;42.60;19.80;;;;;;;7.51;100.00;100753.20;213209;1285;140068;-85
2024/03/22 05:55:09;;;;;;;52.70;23.60;;;;;;;7.53;100.00;100752.70;213874;1284;140741;-85
2024/03/22 06:00:11;;;;;;;50.80;22.80;;;;;;;7.52;100.00;100761.06;213319;1284;140284;-86
2024/03/22 06:05:12;;;;;;;51.30;23.00;;;;;;;7.53;100.00;100758.10;213567;1285;139164;-85
2024/03/22 06:10:12;;;;;;;50.40;22.40;;;;;;;7.55;100.00;100748.23;213213;1285;140413;-86
2024/03/22 06:15:13;;;;;;;48.80;21.80;;;;;;;7.56;100.00;100743.95;213589;1289;139427;-86
2024/03/22 06:20:14;;;;;;;51.40;23.30;;;;;;;7.60;100.00;100743.05;213610;1285;140835;-84
2024/03/22 06:25:14;;;;;;;48.50;23.10;;;;;;;7.64;100.00;100738.31;213937;1285;139619;-85
2024/03/22 06:30:15;;;;;;;52.00;25.50;;;;;;;7.70;100.00;100727.19;213534;1285;140316;-85
2024/03/22 06:35:15;;;;;;;45.80;22.20;;;;;;;7.77;100.00;100726.61;214943;1286;138783;-86
2024/03/22 06:40:16;;;;;;;47.50;21.60;;;;;;;7.83;100.00;100733.20;215807;1286;139686;-85
2024/03/22 06:45:17;;;;;;;43.70;20.10;;;;;;;7.91;100.00;100732.39;215219;1284;139030;-84
2024/03/22 06:50:17;;;;;;;45.60;21.90;;;;;;;7.99;100.00;100732.14;214747;1288;139746;-85
2024/03/22 06:55:18;;;;;;;38.20;19.60;;;;;;;8.05;100.00;100721.79;215067;1285;139027;-85
2024/03/22 07:00:19;;;;;;;39.60;20.90;;;;;;;8.09;100.00;100709.13;214647;1288;139160;-84
2024/03/22 07:05:19;;;;;;;39.20;21.50;;;;;;;8.13;100.00;100708.14;214881;1285;139750;-84
2024/03/22 07:10:22;;;;;;;37.10;19.80;;;;;;;8.21;100.00;100707.58;215745;1284;139991;-85
2024/03/22 07:15:25;;;;;;;41.30;21.70;;;;;;;8.31;100.00;100700.95;216392;1285;140470;-84
2024/03/22 07:20:26;;;;;;;43.90;24.00;;;;;;;8.40;100.00;100694.02;216226;1285;140224;-85
2024/03/22 07:25:26;;;;;;;41.00;21.50;;;;;;;8.45;100.00;100686.16;215863;1288;139058;-83
2024/03/22 07:30:27;;;;;;;42.70;23.50;;;;;;;8.40;100.00;100681.27;213876;1287;140207;-85
2024/03/22 07:35:27;;;;;;;63.40;55.90;;;;;;;8.40;100.00;100682.73;213878;1287;99318;-84
2024/03/22 07:40:28;;;;;;;41.30;20.50;;;;;;;8.43;100.00;100676.08;214499;1285;139729;-84
2024/03/22 07:45:28;;;;;;;38.70;24.10;;;;;;;8.51;100.00;100677.67;215966;1285;139132;-84
2024/03/22 07:50:29;;;;;;;39.90;23.10;;;;;;;8.62;100.00;100668.77;214387;1285;140965;-86
2024/03/22 07:55:29;;;;;;;36.10;21.40;;;;;;;8.73;100.00;100670.83;214948;1285;139023;-85
2024/03/22 08:00:29;;;;;;;38.80;21.00;;;;;;;8.81;100.00;100659.55;214547;1288;140147;-83
2024/03/22 08:05:30;;;;;;;36.00;21.60;;;;;;;8.83;100.00;100656.45;215262;1284;99258;-85
2024/03/22 08:10:30;;;;;;;42.50;27.30;;;;;;;8.96;100.00;100651.00;214539;1284;139854;-84
2024/03/22 08:15:31;;;;;;;38.70;21.50;;;;;;;9.10;100.00;100649.18;215072;1284;140433;-83
2024/03/22 08:20:33;;;;;;;34.50;20.30;;;;;;;9.21;100.00;100653.55;214588;1285;139768;-86
2024/03/22 08:25:34;;;;;;;36.50;22.20;;;;;;;9.24;100.00;100649.47;215227;1285;139059;-86
2024/03/22 08:30:37;;;;;;;33.70;20.70;;;;;;;9.28;100.00;100649.71;214525;1285;139758;-86
2024/03/22 08:35:38;;;;;;;32.00;20.40;;;;;;;9.36;100.00;100646.95;215205;1285;99310;-83
2024/03/22 08:40:39;;;;;;;35.90;22.30;;;;;;;9.44;100.00;100640.75;214566;1286;139961;-84
2024/03/22 08:45:39;;;;;;;38.00;22.70;;;;;;;9.51;100.00;100633.90;216437;1284;139201;-85
2024/03/22 08:50:42;;;;;;;44.20;32.50;;;;;;;9.63;100.00;100629.41;214573;1286;140129;-84
2024/03/22 08:55:47;;;;;;;37.80;25.30;;;;;;;9.62;100.00;100620.05;215320;1285;139030;-84
2024/03/22 09:00:47;;;;;;;57.20;50.30;;;;;;;9.73;100.00;100607.37;214532;1284;140382;-83
2024/03/22 09:05:53;;;;;;;36.50;27.00;;;;;;;9.85;100.00;100598.38;215555;1284;99261;-81
2024/03/22 09:10:53;;;;;;;36.70;27.20;;;;;;;9.98;100.00;100589.81;215032;1285;140362;-84
2024/03/22 09:15:58;;;;;;;44.80;38.40;;;;;;;10.12;100.00;100583.37;215621;1285;140117;-85
2024/03/22 09:20:58;;;;;;;39.60;28.60;;;;;;;10.18;100.00;100576.63;215001;1285;140273;-83
2024/03/22 09:25:59;;;;;;;45.90;39.10;;;;;;;10.28;100.00;100576.23;215323;1287;139686;-83
2024/03/22 09:31:06;;;;;;;55.10;48.10;;;;;;;10.38;100.00;100571.11;214935;1285;140805;-85
2024/03/22 09:36:07;;;;;;;100.70;93.00;;;;;;;10.60;100.00;100564.23;215559;1288;121714;-85
2024/03/22 09:41:08;;;;;;;102.10;93.30;;;;;;;10.79;100.00;100558.50;214975;1285;140636;-84
2024/03/22 09:46:09;;;;;;;92.20;85.20;;;;;;;10.99;100.00;100553.55;216579;1285;139582;-83
2024/03/22 09:51:10;;;;;;;137.40;127.10;;;;;;;11.29;100.00;100546.70;215130;1285;140961;-87
2024/03/22 09:56:14;;;;;;;316.90;293.50;;;;;;;11.60;100.00;100543.00;215613;1282;278385;-83
2024/03/22 10:01:16;;;;;;;219.60;204.60;;;;;;;11.89;100.00;100534.36;215379;1288;141270;-84
2024/03/22 10:06:16;;;;;;;201.80;188.20;;;;;;;11.98;100.00;100534.42;216242;1283;99808;-82
2024/03/22 10:11:17;;;;;;;399.30;367.30;;;;;;;12.08;100.00;100525.27;216702;1286;141028;-84
2024/03/22 10:16:18;;;;;;;326.60;304.50;;;;;;;12.19;100.00;100512.73;216995;1285;140265;-83
2024/03/22 10:21:19;;;;;;;363.10;338.30;;;;;;;12.39;100.00;100504.55;216474;1285;140018;-83
2024/03/22 10:26:19;;;;;;;334.70;311.40;;;;;;;12.46;100.00;100497.96;215384;1285;140320;-83
2024/03/22 10:31:20;;;;;;;318.80;296.50;;;;;;;12.42;100.00;100488.96;214905;1283;141460;-84
2024/03/22 10:36:21;;;;;;;384.30;350.40;;;;;;;12.35;100.00;100492.23;215414;1285;100645;-86
2024/03/22 10:41:22;;;;;;;524.20;483.60;;;;;;;12.27;100.00;100481.55;214819;1285;140960;-83
2024/03/22 10:46:29;;;;;;;659.70;604.70;;;;;;;12.23;100.00;100472.07;216493;1285;139572;-83
2024/03/22 10:51:31;;;;;;;468.80;433.30;;;;;;;12.28;100.00;100464.38;215536;1284;139764;-83
2024/03/22 10:56:32;;;;;;;533.50;489.70;;;;;;;12.26;100.00;100453.88;215455;1284;140345;-83
2024/03/22 11:01:37;;;;;;;551.20;500.40;;;;;;;12.28;100.00;100447.57;214822;1288;141239;-85
2024/03/22 11:06:38;;;;;;;407.10;378.10;;;;;;;12.33;100.00;100451.61;215460;1285;139960;-84
2024/03/22 11:11:41;;;;;;;530.80;488.50;;;;;;;12.36;100.00;100447.77;215082;1285;140707;-85
2024/03/22 11:16:45;;;;;;;535.30;493.40;;;;;;;12.33;100.00;100441.85;215364;1285;139522;-84
2024/03/22 11:21:46;;;;;;;975.20;750.20;;;;;;;12.21;100.00;100440.76;214922;1285;140307;-84
2024/03/22 11:26:46;;;;;;;552.80;509.00;;;;;;;11.98;100.00;100436.00;215443;1285;139834;-83
2024/03/22 11:31:47;;;;;;;533.50;492.40;;;;;;;11.93;100.00;100418.47;214143;1285;141028;-83
2024/03/22 11:36:49;;;;;;;475.70;438.80;;;;;;;11.85;100.00;100399.67;215150;1288;139739;-82
2024/03/22 11:41:50;;;;;;;525.10;483.80;;;;;;;11.74;100.00;100390.48;214724;1285;141070;-84
2024/03/22 11:46:51;;;;;;;480.80;439.10;;;;;;;11.66;100.00;100377.91;215542;1284;139705;-83
2024/03/22 11:51:52;;;;;;;377.10;349.60;;;;;;;11.60;100.00;100379.04;216251;1285;140946;-84
2024/03/22 11:56:56;;;;;;;149.50;138.70;;;;;;;11.56;100.00;100364.19;215383;1285;140395;-85
2024/03/22 12:01:57;;;;;;;171.90;159.90;;;;;;;11.52;100.00;100358.97;214887;1286;139884;-85
2024/03/22 12:06:58;;;;;;;180.20;168.10;;;;;;;11.48;100.00;100353.82;215390;1285;139959;-83
2024/03/22 12:11:59;;;;;;;156.90;145.80;;;;;;;11.41;100.00;100345.59;214940;1285;140494;-86
2024/03/22 12:16:59;;;;;;;123.70;114.10;;;;;;;11.37;100.00;100337.94;215625;1285;139737;-85
2024/03/22 12:22:00;;;;;;;167.10;155.40;;;;;;;11.33;100.00;100330.43;215187;1286;141008;-85
2024/03/22 12:27:01;;;;;;;146.30;135.50;;;;;;;11.32;100.00;100326.89;215579;1285;139971;-83
2024/03/22 12:32:03;;;;;;;152.30;141.70;;;;;;;11.34;100.00;100318.23;214757;1285;140319;-86
2024/03/22 12:37:04;;;;;;;166.80;155.30;;;;;;;11.36;100.00;100311.16;214602;1285;139721;-83
2024/03/22 12:42:05;;;;;;;247.20;227.60;;;;;;;11.40;100.00;100299.77;214879;1285;140666;-83
2024/03/22 12:47:06;;;;;;;255.80;236.00;;;;;;;11.39;100.00;100291.02;215227;1284;139868;-83
2024/03/22 12:52:07;;;;;;;284.70;264.50;;;;;;;11.39;100.00;100282.13;216499;1284;141146;-83
2024/03/22 12:57:08;;;;;;;160.10;148.80;;;;;;;11.43;100.00;100273.33;215300;1284;140229;-84
2024/03/22 13:02:08;;;;;;;118.90;109.80;;;;;;;11.41;100.00;100264.90;214666;1283;140751;-84
2024/03/22 13:07:09;;;;;;;191.00;178.20;;;;;;;11.41;100.00;100261.11;215420;1285;140387;-84
2024/03/22 13:12:09;;;;;;;168.20;156.30;;;;;;;11.43;100.00;100257.52;214818;1286;142662;-86
2024/03/22 13:17:10;;;;;;;189.10;176.10;;;;;;;11.47;100.00;100258.79;215322;1285;139577;-83
2024/03/22 13:22:12;;;;;;;227.40;212.00;;;;;;;11.50;100.00;100243.85;214355;1286;140557;-83
2024/03/22 13:27:13;;;;;;;228.20;212.00;;;;;;;11.55;100.00;100226.14;214825;1285;140191;-82
2024/03/22 13:32:14;;;;;;;272.50;252.90;;;;;;;11.60;100.00;100225.09;214413;1285;140727;-85
2024/03/22 13:37:14;;;;;;;249.70;232.00;;;;;;;11.64;100.00;100232.83;215094;1285;140223;-85
2024/03/22 13:42:15;;;;;;;257.30;239.30;;;;;;;11.71;100.00;100232.13;214674;1285;141293;-84
2024/03/22 13:47:17;;;;;;;302.90;282.10;;;;;;;11.77;100.00;100218.92;215078;1285;139386;-84
2024/03/22 13:52:18;;;;;;;413.90;375.80;;;;;;;11.83;100.00;100201.67;215779;1285;140737;-86
2024/03/22 13:57:18;;;;;;;308.00;285.70;;;;;;;11.89;100.00;100191.39;215804;1285;139740;-83
2024/03/22 14:02:20;;;;;;;325.70;302.50;;;;;;;11.96;100.00;100184.92;214445;1288;140660;-83
2024/03/22 14:07:20;;;;;;;304.60;282.80;;;;;;;12.00;100.00;100174.36;215034;1285;139820;-84
2024/03/22 14:12:21;;;;;;;468.20;431.70;;;;;;;12.04;100.00;100162.30;214642;1288;140412;-83
2024/03/22 14:17:22;;;;;;;515.30;466.40;;;;;;;12.08;100.00;100152.23;215009;1285;139680;-86
2024/03/22 14:22:22;;;;;;;657.20;594.50;;;;;;;12.09;100.00;100137.82;214566;1288;140456;-85
2024/03/22 14:27:22;;;;;;;662.50;594.10;;;;;;;12.12;100.00;100141.13;214805;1284;139904;-84
2024/03/22 14:32:23;;;;;;;496.00;445.30;;;;;;;12.13;100.00;100133.56;214453;1285;140374;-88
2024/03/22 14:37:23;;;;;;;536.10;493.30;;;;;;;12.14;100.00;100134.83;215042;1285;139707;-83
2024/03/22 14:42:25;;;;;;;464.80;430.20;;;;;;;12.18;100.00;100134.51;214569;1285;141478;-84
2024/03/22 14:47:26;;;;;;;479.50;443.50;;;;;;;12.22;100.00;100133.72;215352;1286;98084;-83
2024/03/22 14:52:26;;;;;;;666.20;607.20;;;;;;;12.25;100.00;100129.61;214528;1285;140681;-84
2024/03/22 14:57:27;;;;;;;688.10;631.20;;;;;;;12.28;100.00;100122.44;217198;1285;138579;-84
2024/03/22 15:02:27;;;;;;;823.20;747.20;;;;;;;12.31;100.00;100123.45;214502;1285;140484;-84
2024/03/22 15:07:28;;;;;;;752.90;685.20;;;;;;;12.31;100.00;100113.85;215079;1286;139866;-84
2024/03/22 15:12:29;;;;;;;660.90;607.00;;;;;;;12.27;100.00;100102.41;214957;1288;139951;-85
2024/03/22 15:17:30;;;;;;;710.30;652.20;;;;;;;12.22;100.00;100099.03;215530;1286;108646;-84
2024/03/22 15:22:30;;;;;;;749.10;681.90;;;;;;;12.16;100.00;100095.41;214989;1286;140417;-84
2024/03/22 15:27:31;;;;;;;737.00;674.40;;;;;;;12.11;100.00;100094.08;215099;1285;139921;-81
2024/03/22 15:32:32;;;;;;;798.20;724.00;;;;;;;12.04;100.00;100083.13;213656;1286;141102;-84
2024/03/22 15:37:34;;;;;;;809.20;734.60;;;;;;;11.99;100.00;100086.59;214118;1287;140960;-83
2024/03/22 15:42:36;;;;;;;716.70;657.10;;;;;;;11.91;100.00;100083.36;214020;1288;141123;-85
2024/03/22 15:47:36;;;;;;;610.30;563.90;;;;;;;11.82;100.00;100075.00;215116;1286;99652;-85
2024/03/22 15:52:37;;;;;;;348.20;323.20;;;;;;;11.73;100.00;100063.81;214570;1288;140371;-86
2024/03/22 15:57:37;;;;;;;267.40;248.60;;;;;;;11.62;100.00;100061.52;217171;1286;139585;-85
2024/03/22 16:02:41;;;;;;;125.50;116.30;;;;;;;11.50;100.00;100060.62;214524;1285;140703;-85
2024/03/22 16:07:41;;;;;;;152.60;141.10;;;;;;;11.38;100.00;100049.95;215363;1286;139688;-83
2024/03/22 16:12:42;;;;;;;92.30;85.00;;;;;;;11.29;100.00;100038.84;214689;1288;141201;-84
2024/03/22 16:17:42;;;;;;;96.50;88.50;;;;;;;11.24;100.00;100037.73;215051;1288;100837;-85
2024/03/22 16:22:43;;;;;;;99.80;92.00;;;;;;;11.20;100.00;100042.14;214438;1288;140427;-85
2024/03/22 16:27:43;;;;;;;104.40;96.30;;;;;;;11.16;100.00;100043.95;215211;1285;139591;-85
2024/03/22 16:32:44;;;;;;;79.20;72.60;;;;;;;11.13;100.00;100049.28;214663;1283;139637;-85
2024/03/22 16:37:44;;;;;;;96.00;88.40;;;;;;;11.10;100.00;100044.70;215125;1285;139997;-85
2024/03/22 16:42:46;;;;;;;90.50;83.10;;;;;;;11.04;100.00;100041.00;214646;1285;140998;-84
2024/03/22 16:47:50;;;;;;;77.20;70.40;;;;;;;11.01;100.00;100042.88;215373;1285;99361;-84
2024/03/22 16:52:51;;;;;;;87.70;80.30;;;;;;;10.99;100.00;100043.18;215008;1283;140327;-85
2024/03/22 16:57:52;;;;;;;77.80;71.30;;;;;;;10.95;100.00;100044.27;215847;1285;141780;-85
2024/03/22 17:03:02;;;;;;;81.30;74.30;;;;;;;10.87;100.00;100054.23;214590;1286;140040;-85
2024/03/22 17:08:03;;;;;;;92.40;84.80;;;;;;;10.81;100.00;100055.39;215153;1288;139487;-85
2024/03/22 17:13:04;;;;;;;69.80;63.90;;;;;;;10.77;100.00;100055.67;214453;1288;145243;-84
2024/03/22 17:18:04;;;;;;;78.60;72.00;;;;;;;10.71;100.00;100053.38;215197;1288;99394;-85
2024/03/22 17:23:05;;;;;;;65.30;59.40;;;;;;;10.63;100.00;100052.88;214558;1288;140450;-86
2024/03/22 17:28:06;;;;;;;62.50;57.10;;;;;;;10.56;100.00;100049.14;215197;1285;139195;-85
2024/03/22 17:33:07;;;;;;;62.00;56.60;;;;;;;10.52;100.00;100036.30;214646;1286;141274;-85
2024/03/22 17:38:09;;;;;;;53.20;48.30;;;;;;;10.51;100.00;100038.89;215233;1286;139559;-87
2024/03/22 17:43:10;;;;;;;65.90;59.60;;;;;;;10.47;100.00;100041.39;214735;1288;140229;-85
2024/03/22 17:48:11;;;;;;;44.70;37.50;;;;;;;10.44;100.00;100027.61;214446;1289;99355;-85
2024/03/22 17:53:11;;;;;;;53.10;47.30;;;;;;;10.41;100.00;100026.27;214218;1288;141144;-85
2024/03/22 17:58:12;;;;;;;43.60;36.80;;;;;;;10.40;100.00;100026.26;214710;1287;139373;-85
2024/03/22 18:03:13;;;;;;;50.90;45.80;;;;;;;10.37;100.00;100013.75;214878;1286;140926;-85
2024/03/22 18:08:13;;;;;;;50.90;44.60;;;;;;;10.34;100.00;100014.20;213979;1288;139602;-85
2024/03/22 18:13:15;;;;;;;50.40;44.80;;;;;;;10.32;100.00;100013.73;214534;1286;142022;-86
2024/03/22 18:18:15;;;;;;;50.60;45.40;;;;;;;10.31;100.00;100018.11;215252;1286;99325;-87
2024/03/22 18:23:16;;;;;;;43.20;38.10;;;;;;;10.30;100.00;100012.70;214693;1288;139798;-86
2024/03/22 18:28:17;;;;;;;56.20;48.30;;;;;;;10.29;100.00;100013.71;215349;1286;139315;-86
2024/03/22 18:33:17;;;;;;;51.70;46.50;;;;;;;10.27;100.00;100005.45;214710;1287;140943;-87
2024/03/22 18:38:18;;;;;;;54.20;48.10;;;;;;;10.24;100.00;99997.66;215128;1286;139392;-86
2024/03/22 18:43:19;;;;;;;53.30;42.90;;;;;;;10.22;100.00;99998.20;214811;1285;139563;-86
2024/03/22 18:48:20;;;;;;;55.30;49.80;;;;;;;10.20;100.00;99992.83;215481;1285;97992;-87
2024/03/22 18:53:21;;;;;;;46.50;36.40;;;;;;;10.19;100.00;99993.77;214896;1286;139020;-86
2024/03/22 18:58:21;;;;;;;48.30;42.50;;;;;;;10.18;100.00;99988.80;215111;1287;140279;-85
2024/03/22 19:03:22;;;;;;;47.80;41.90;;;;;;;10.18;100.00;99989.77;216814;1288;138095;-86
2024/03/22 19:08:22;;;;;;;53.00;47.40;;;;;;;10.16;100.00;99987.55;215228;1285;140463;-86
2024/03/22 19:13:23;;;;;;;55.10;49.30;;;;;;;10.15;100.00;99976.70;215692;1285;139436;-85
2024/03/22 19:18:24;;;;;;;48.30;41.80;;;;;;;10.14;100.00;99974.19;215179;1285;139319;-87
2024/03/22 19:23:24;;;;;;;71.80;64.50;;;;;;;10.13;100.00;99972.91;215380;1285;138907;-90
2024/03/22 19:28:25;;;;;;;48.10;42.20;;;;;;;10.09;100.00;99966.38;214920;1282;140020;-88
2024/03/22 19:33:25;;;;;;;63.40;57.30;;;;;;;10.07;100.00;99962.84;215462;1289;139257;-87
2024/03/22 19:38:27;;;;;;;48.20;41.00;;;;;;;10.06;100.00;99954.58;214950;1285;164887;-87
2024/03/22 19:43:29;;;;;;;48.70;40.50;;;;;;;10.04;100.00;99950.09;215512;1284;139441;-87
2024/03/22 19:48:30;;;;;;;54.10;47.70;;;;;;;10.04;100.00;99946.93;214958;1285;139943;-87
2024/03/22 19:53:31;;;;;;;62.20;56.10;;;;;;;10.03;100.00;99947.23;215534;1284;105172;-87
2024/03/22 19:58:31;;;;;;;58.60;51.60;;;;;;;10.02;100.00;99945.33;214752;1285;140439;-86
2024/03/22 20:03:32;;;;;;;54.00;43.60;;;;;;;10.00;100.00;99944.54;216236;1284;139040;-86
2024/03/22 20:08:32;;;;;;;65.70;58.70;;;;;;;9.98;100.00;99937.00;215072;1288;140773;-87
2024/03/22 20:13:33;;;;;;;64.60;58.30;;;;;;;9.96;100.00;99932.73;215548;1285;138967;-85
2024/03/22 20:18:33;;;;;;;62.40;56.40;;;;;;;9.95;100.00;99930.45;214941;1285;139853;-87
2024/03/22 20:23:34;;;;;;;69.20;62.50;;;;;;;9.94;100.00;99927.62;215547;1285;99317;-86
2024/03/22 20:28:34;;;;;;;72.90;66.30;;;;;;;9.93;100.00;99924.39;214887;1285;139614;-88
2024/03/22 20:33:35;;;;;;;81.00;73.40;;;;;;;9.92;100.00;99916.30;215478;1285;139297;-86
2024/03/22 20:38:36;;;;;;;124.90;115.40;;;;;;;9.93;100.00;99912.77;215033;1288;141249;-89
2024/03/22 20:43:36;;;;;;;91.40;83.60;;;;;;;9.93;100.00;99909.94;215495;1285;139239;-87
2024/03/22 20:48:37;;;;;;;74.90;68.10;;;;;;;9.91;100.00;99905.29;215192;1286;141063;-89
2024/03/22 20:53:39;;;;;;;93.70;85.30;;;;;;;9.91;100.00;99899.09;215769;1283;99311;-87
2024/03/22 20:58:39;;;;;;;108.40;99.80;;;;;;;9.91;100.00;99901.21;215138;1285;140087;-88
2024/03/22 21:03:39;;;;;;;102.10;93.90;;;;;;;9.92;100.00;99899.65;216761;1285;137954;-88
2024/03/22 21:08:40;;;;;;;127.10;117.30;;;;;;;9.92;100.00;99892.04;214960;1283;140070;-86
2024/03/22 21:13:41;;;;;;;112.40;103.20;;;;;;;9.94;100.00;99892.20;215646;1286;139257;-86
2024/03/22 21:18:42;;;;;;;96.70;88.20;;;;;;;9.94;100.00;99887.64;215030;1283;141442;-89
2024/03/22 21:23:42;;;;;;;133.80;123.60;;;;;;;9.94;100.00;99878.14;215526;1287;107581;-88
2024/03/22 21:28:43;;;;;;;109.00;99.90;;;;;;;9.94;100.00;99874.92;215076;1285;140288;-89
2024/03/22 21:33:44;;;;;;;140.50;129.80;;;;;;;9.94;100.00;99874.60;215501;1284;139084;-88
2024/03/22 21:38:44;;;;;;;148.90;137.30;;;;;;;9.95;100.00;99873.20;215092;1283;141034;-87
2024/03/22 21:43:45;;;;;;;128.80;119.00;;;;;;;9.96;100.00;99873.69;215392;1285;139173;-90
2024/03/22 21:48:45;;;;;;;152.20;140.30;;;;;;;9.96;100.00;99859.23;215062;1288;140102;-89
2024/03/22 21:53:45;;;;;;;174.10;160.70;;;;;;;9.96;100.00;99861.18;215323;1285;374396;-89
2024/03/22 21:58:46;;;;;;;121.40;111.50;;;;;;;9.98;100.00;99859.30;215099;1283;164406;-86
2024/03/22 22:03:49;;;;;;;162.70;150.30;;;;;;;9.99;100.00;99855.47;216724;1283;139347;-88